createdAt,value
2018-08-13T00:01:07.207Z,36.70
2018-08-13T00:03:36.210Z,36.80
2018-08-13T00:06:07.200Z,36.80
2018-08-13T00:08:35.992Z,37.10
2018-08-13T00:11:05.228Z,37.10
2018-08-13T00:13:34.639Z,37.20
2018-08-13T00:16:04.463Z,37.40
2018-08-13T00:18:33.124Z,37.90
2018-08-13T00:21:03.963Z,37.40
2018-08-13T00:23:35.015Z,37.40
2018-08-13T00:26:06.407Z,37.50
2018-08-13T00:28:36.320Z,37.40
2018-08-13T00:31:05.421Z,37.50
2018-08-13T00:33:34.237Z,37.50
2018-08-13T00:36:03.033Z,37.50
2018-08-13T00:38:32.297Z,37.50
2018-08-13T00:41:01.250Z,37.40
2018-08-13T00:43:30.555Z,37.40
2018-08-13T00:45:59.286Z,37.40
2018-08-13T00:48:27.940Z,37.50
2018-08-13T00:50:56.570Z,37.50
2018-08-13T00:53:25.264Z,37.60
2018-08-13T00:55:54.292Z,37.50
2018-08-13T00:58:22.937Z,37.50
2018-08-13T01:00:51.597Z,37.50
2018-08-13T01:03:20.291Z,37.60
2018-08-13T01:05:49.641Z,37.60
2018-08-13T01:08:18.793Z,37.70
2018-08-13T01:10:47.680Z,37.70
2018-08-13T01:13:16.284Z,37.70
2018-08-13T01:15:44.857Z,37.80
2018-08-13T01:18:22.619Z,37.90
2018-08-13T01:20:51.543Z,38.10
2018-08-13T01:23:20.149Z,38.10
2018-08-13T01:25:48.732Z,38.10
2018-08-13T01:28:17.412Z,38.10
2018-08-13T01:30:46.513Z,38.00
2018-08-13T01:33:15.342Z,38.00
2018-08-13T01:35:44.152Z,38.00
2018-08-13T01:38:12.844Z,38.10
2018-08-13T01:40:41.366Z,38.30
2018-08-13T01:43:10.418Z,38.40
2018-08-13T01:45:39.730Z,38.60
2018-08-13T01:48:08.830Z,38.80
2018-08-13T01:50:37.423Z,38.80
2018-08-13T01:53:09.355Z,38.90
2018-08-13T01:55:39.350Z,39.00
2018-08-13T01:58:08.134Z,39.60
2018-08-13T02:00:36.866Z,39.00
2018-08-13T02:03:06.405Z,39.00
2018-08-13T02:05:35.464Z,38.90
2018-08-13T02:08:04.115Z,39.00
2018-08-13T02:10:32.826Z,39.20
2018-08-13T02:13:02.074Z,39.30
2018-08-13T02:15:30.752Z,39.30
2018-08-13T02:17:59.719Z,39.30
2018-08-13T02:20:28.533Z,39.20
2018-08-13T02:22:57.066Z,39.30
2018-08-13T02:25:25.898Z,39.30
2018-08-13T02:27:54.848Z,39.30
2018-08-13T02:30:23.997Z,39.30
2018-08-13T02:32:52.607Z,39.40
2018-08-13T02:35:21.226Z,39.40
2018-08-13T02:37:49.834Z,39.40
2018-08-13T02:40:18.410Z,39.40
2018-08-13T02:42:46.936Z,39.30
2018-08-13T02:45:15.573Z,39.20
2018-08-13T02:47:44.249Z,39.20
2018-08-13T02:50:13.992Z,39.80
2018-08-13T02:52:42.871Z,39.30
2018-08-13T02:55:12.441Z,39.30
2018-08-13T02:57:42.136Z,39.40
2018-08-13T03:00:11.941Z,39.60
2018-08-13T03:02:41.496Z,39.50
2018-08-13T03:05:12.173Z,39.60
2018-08-13T03:07:41.773Z,39.50
2018-08-13T03:10:12.407Z,39.50
2018-08-13T03:12:47.361Z,39.70
2018-08-13T03:15:16.437Z,39.70
2018-08-13T03:17:45.064Z,39.80
2018-08-13T03:20:13.656Z,39.90
2018-08-13T03:22:42.181Z,39.90
2018-08-13T03:25:11.042Z,40.20
2018-08-13T03:27:40.326Z,40.40
2018-08-13T03:30:14.224Z,40.70
2018-08-13T03:32:43.402Z,40.70
2018-08-13T03:35:12.139Z,41.10
2018-08-13T03:37:41.296Z,41.40
2018-08-13T03:40:12.121Z,41.80
2018-08-13T03:42:41.159Z,41.60
2018-08-13T03:45:11.484Z,41.40
2018-08-13T03:47:40.939Z,41.30
2018-08-13T03:50:11.223Z,41.30
2018-08-13T03:52:40.136Z,41.90
2018-08-13T03:55:10.499Z,41.20
2018-08-13T03:57:40.056Z,41.10
2018-08-13T04:00:12.655Z,41.20
2018-08-13T04:02:41.616Z,41.30
2018-08-13T04:05:10.972Z,41.40
2018-08-13T04:07:40.710Z,41.40
2018-08-13T04:10:10.775Z,41.40
2018-08-13T04:12:41.502Z,41.50
2018-08-13T04:15:11.872Z,41.50
2018-08-13T04:17:41.483Z,41.40
2018-08-13T04:20:11.662Z,41.40
2018-08-13T04:22:41.372Z,41.40
2018-08-13T04:25:11.140Z,41.40
2018-08-13T04:27:40.790Z,41.40
2018-08-13T04:30:13.968Z,41.40
2018-08-13T04:32:43.633Z,41.60
2018-08-13T04:35:12.310Z,41.50
2018-08-13T04:37:41.504Z,41.60
2018-08-13T04:40:12.260Z,41.70
2018-08-13T04:42:41.621Z,41.70
2018-08-13T04:45:10.578Z,41.70
2018-08-13T04:47:40.011Z,41.80
2018-08-13T04:50:10.099Z,41.70
2018-08-13T04:52:39.062Z,41.70
2018-08-13T04:55:09.312Z,41.70
2018-08-13T04:57:38.321Z,41.70
2018-08-13T05:00:07.608Z,41.70
2018-08-13T05:02:36.432Z,41.80
2018-08-13T05:05:07.134Z,42.00
2018-08-13T05:07:35.884Z,42.10
2018-08-13T05:10:05.908Z,42.40
2018-08-13T05:12:34.830Z,43.00
2018-08-13T05:15:05.153Z,42.40
2018-08-13T05:17:34.449Z,42.60
2018-08-13T05:20:03.437Z,42.70
2018-08-13T05:22:33.056Z,42.90
2018-08-13T05:25:02.076Z,43.10
2018-08-13T05:27:30.824Z,43.30
2018-08-13T05:29:59.444Z,43.60
2018-08-13T05:32:28.307Z,43.80
2018-08-13T05:34:56.938Z,43.80
2018-08-13T05:37:25.434Z,43.80
2018-08-13T05:39:54.039Z,44.20
2018-08-13T05:42:22.573Z,44.50
2018-08-13T05:44:51.244Z,44.80
2018-08-13T05:47:20.249Z,44.60
2018-08-13T05:49:48.827Z,44.60
2018-08-13T05:52:17.384Z,44.60
2018-08-13T05:54:45.995Z,44.10
2018-08-13T05:57:15.044Z,44.10
2018-08-13T05:59:43.938Z,43.70
2018-08-13T06:02:13.156Z,42.90
2018-08-13T06:04:41.855Z,42.70
2018-08-13T06:07:10.503Z,42.40
2018-08-13T06:09:39.186Z,42.20
2018-08-13T06:12:07.827Z,42.20
2018-08-13T06:14:37.153Z,42.30
2018-08-13T06:17:06.543Z,42.80
2018-08-13T06:19:35.096Z,43.10
2018-08-13T06:22:04.114Z,42.50
2018-08-13T06:24:32.804Z,42.40
2018-08-13T06:27:01.303Z,42.10
2018-08-13T06:29:30.806Z,41.60
2018-08-13T06:31:59.554Z,41.20
2018-08-13T06:34:28.104Z,41.10
2018-08-13T06:36:56.644Z,41.00
2018-08-13T06:39:25.203Z,40.80
2018-08-13T06:41:53.788Z,40.80
2018-08-13T06:44:22.364Z,40.60
2018-08-13T06:46:50.896Z,40.70
2018-08-13T06:49:19.654Z,40.80
2018-08-13T06:51:48.358Z,40.80
2018-08-13T06:54:16.925Z,40.90
2018-08-13T06:56:45.389Z,41.10
2018-08-13T06:59:13.989Z,41.00
2018-08-13T07:01:42.613Z,40.90
2018-08-13T07:04:11.110Z,41.00
2018-08-13T07:06:40.813Z,41.40
2018-08-13T07:09:11.413Z,42.30
2018-08-13T07:11:40.036Z,43.10
2018-08-13T07:14:08.621Z,43.80
2018-08-13T07:16:37.521Z,44.00
2018-08-13T07:19:06.433Z,44.20
2018-08-13T07:21:35.017Z,44.40
2018-08-13T07:24:03.649Z,44.70
2018-08-13T07:26:32.284Z,45.50
2018-08-13T07:29:00.866Z,47.00
2018-08-13T07:31:29.678Z,48.30
2018-08-13T07:33:58.417Z,49.00
2018-08-13T07:36:26.946Z,49.80
2018-08-13T07:38:55.626Z,50.60
2018-08-13T07:41:24.197Z,51.20
2018-08-13T07:43:52.765Z,51.40
2018-08-13T07:46:21.406Z,51.70
2018-08-13T07:48:49.957Z,52.50
2018-08-13T07:51:18.572Z,53.10
2018-08-13T07:53:47.261Z,53.60
2018-08-13T07:56:16.206Z,53.90
2018-08-13T07:58:44.886Z,54.30
2018-08-13T08:01:13.930Z,54.70
2018-08-13T08:03:42.832Z,54.80
2018-08-13T08:06:12.095Z,54.40
2018-08-13T08:08:43.584Z,54.40
2018-08-13T08:11:12.189Z,54.50
2018-08-13T08:13:41.604Z,55.10
2018-08-13T08:16:10.355Z,55.50
2018-08-13T08:18:39.117Z,55.90
2018-08-13T08:21:07.794Z,56.40
2018-08-13T08:23:36.464Z,56.50
2018-08-13T08:26:05.305Z,56.60
2018-08-13T08:28:34.382Z,57.00
2018-08-13T08:31:03.624Z,57.40
2018-08-13T08:33:32.456Z,58.00
2018-08-13T08:36:01.091Z,58.30
2018-08-13T08:38:29.691Z,58.70
2018-08-13T08:40:58.337Z,58.90
2018-08-13T08:43:26.957Z,59.30
2018-08-13T08:45:55.972Z,59.60
2018-08-13T08:48:24.569Z,59.50
2018-08-13T08:50:53.175Z,59.50
2018-08-13T08:53:21.703Z,59.80
2018-08-13T08:55:50.460Z,60.10
2018-08-13T08:58:19.027Z,60.30
2018-08-13T09:03:12.080Z,60.40
2018-08-13T09:05:41.761Z,61.00
2018-08-13T09:08:10.423Z,60.70
2018-08-13T09:10:39.351Z,61.20
2018-08-13T09:13:08.024Z,61.20
2018-08-13T09:15:36.657Z,61.50
2018-08-13T09:18:16.591Z,61.40
2018-08-13T09:20:56.452Z,61.60
2018-08-13T09:23:36.424Z,61.30
2018-08-13T09:26:16.572Z,61.70
2018-08-13T09:28:56.604Z,62.00
2018-08-13T09:31:37.831Z,62.20
2018-08-13T09:34:17.539Z,62.20
2018-08-13T09:36:46.163Z,62.50
2018-08-13T09:39:14.736Z,62.70
2018-08-13T09:41:44.220Z,62.90
2018-08-13T09:44:13.716Z,63.10
2018-08-13T09:46:43.717Z,63.20
2018-08-13T09:49:13.037Z,63.40
2018-08-13T09:51:42.815Z,63.40
2018-08-13T09:54:11.785Z,63.70
2018-08-13T09:56:43.762Z,63.90
2018-08-13T09:59:12.323Z,63.80
2018-08-13T10:01:41.223Z,64.20
2018-08-13T10:04:10.419Z,64.40
2018-08-13T10:06:39.737Z,64.20
2018-08-13T10:09:08.651Z,63.80
2018-08-13T10:11:37.265Z,64.10
2018-08-13T10:14:06.702Z,64.20
2018-08-13T10:16:36.797Z,64.30
2018-08-13T10:19:06.540Z,64.70
2018-08-13T10:21:35.836Z,65.00
2018-08-13T10:24:05.360Z,65.10
2018-08-13T10:26:34.002Z,64.90
2018-08-13T10:29:02.838Z,65.00
2018-08-13T10:31:32.190Z,64.70
2018-08-13T10:34:02.151Z,64.90
2018-08-13T10:36:32.998Z,64.70
2018-08-13T10:39:08.672Z,64.80
2018-08-13T10:41:43.247Z,64.80
2018-08-13T10:44:11.885Z,64.40
2018-08-13T10:46:42.197Z,64.80
2018-08-13T10:49:11.628Z,64.80
2018-08-13T10:51:42.749Z,64.30
2018-08-13T10:54:11.883Z,64.40
2018-08-13T10:56:42.564Z,64.40
2018-08-13T10:59:15.313Z,64.40
2018-08-13T11:01:45.452Z,64.60
2018-08-13T11:04:14.607Z,64.60
2018-08-13T11:06:43.460Z,64.60
2018-08-13T11:09:12.448Z,65.70
2018-08-13T11:11:41.873Z,65.20
2018-08-13T11:14:10.486Z,65.30
2018-08-13T11:16:39.280Z,65.00
2018-08-13T11:19:07.977Z,65.00
2018-08-13T11:21:37.023Z,64.70
2018-08-13T11:24:07.150Z,65.00
2018-08-13T11:26:36.982Z,64.80
2018-08-13T11:29:08.140Z,64.90
2018-08-13T11:31:37.048Z,64.80
2018-08-13T11:34:07.801Z,64.80
2018-08-13T11:36:36.451Z,65.50
2018-08-13T11:39:09.334Z,65.20
2018-08-13T11:41:40.005Z,64.70
2018-08-13T11:44:09.707Z,64.60
2018-08-13T11:46:39.578Z,64.90
2018-08-13T11:49:08.318Z,64.60
2018-08-13T11:51:37.356Z,64.40
2018-08-13T11:54:06.246Z,64.70
2018-08-13T11:56:35.219Z,64.80
2018-08-13T11:59:03.943Z,64.60
2018-08-13T12:01:33.738Z,64.50
2018-08-13T12:04:03.394Z,64.80
2018-08-13T12:06:33.890Z,64.50
2018-08-13T12:09:03.990Z,64.30
2018-08-13T12:11:33.267Z,64.00
2018-08-13T12:14:02.001Z,63.60
2018-08-13T12:16:31.556Z,64.20
2018-08-13T12:19:00.235Z,63.60
2018-08-13T12:21:28.884Z,64.60
2018-08-13T12:23:57.546Z,63.70
2018-08-13T12:26:27.135Z,64.00
2018-08-13T12:28:56.524Z,63.90
2018-08-13T12:31:25.245Z,63.60
2018-08-13T12:33:54.857Z,63.50
2018-08-13T12:36:24.045Z,63.40
2018-08-13T12:38:52.726Z,63.40
2018-08-13T12:41:21.750Z,63.60
2018-08-13T12:43:50.388Z,63.70
2018-08-13T12:46:19.365Z,63.40
2018-08-13T12:48:47.938Z,63.50
2018-08-13T12:51:16.550Z,63.60
2018-08-13T12:53:45.089Z,63.50
2018-08-13T12:56:13.917Z,63.50
2018-08-13T12:58:42.469Z,63.50
2018-08-13T13:01:11.827Z,63.20
2018-08-13T13:03:42.222Z,63.20
2018-08-13T13:06:11.225Z,63.40
2018-08-13T13:08:40.138Z,63.50
2018-08-13T13:11:09.004Z,63.60
2018-08-13T13:13:37.916Z,63.50
2018-08-13T13:16:06.614Z,63.70
2018-08-13T13:18:36.453Z,63.90
2018-08-13T13:21:05.919Z,63.80
2018-08-13T13:23:36.434Z,63.70
2018-08-13T13:26:06.336Z,63.70
2018-08-13T13:28:35.999Z,64.00
2018-08-13T13:31:06.130Z,64.10
2018-08-13T13:33:35.090Z,65.00
2018-08-13T13:36:04.487Z,64.10
2018-08-13T13:38:33.192Z,64.20
2018-08-13T13:41:01.823Z,64.00
2018-08-13T13:43:30.490Z,64.10
2018-08-13T13:46:00.323Z,64.20
2018-08-13T13:48:29.138Z,64.20
2018-08-13T13:50:58.548Z,64.30
2018-08-13T13:53:29.382Z,64.30
2018-08-13T13:55:58.492Z,64.70
2018-08-13T13:58:27.416Z,64.60
2018-08-13T14:00:57.744Z,64.40
2018-08-13T14:03:26.943Z,65.10
2018-08-13T14:05:55.582Z,65.10
2018-08-13T14:08:24.192Z,65.00
2018-08-13T14:10:53.520Z,64.80
2018-08-13T14:13:22.170Z,64.10
2018-08-13T14:15:52.048Z,63.70
2018-08-13T14:18:21.332Z,63.50
2018-08-13T14:20:50.357Z,63.00
2018-08-13T14:23:20.840Z,62.30
2018-08-13T14:25:50.021Z,61.10
2018-08-13T14:28:18.679Z,60.40
2018-08-13T14:30:47.674Z,60.30
2018-08-13T14:33:16.856Z,59.80
2018-08-13T14:35:46.308Z,59.70
2018-08-13T14:38:16.656Z,60.00
2018-08-13T14:40:45.945Z,60.20
2018-08-13T14:43:14.684Z,60.20
2018-08-13T14:45:43.860Z,59.70
2018-08-13T14:48:15.180Z,59.80
2018-08-13T14:50:43.888Z,60.10
2018-08-13T14:53:12.533Z,60.40
2018-08-13T14:55:41.845Z,59.70
2018-08-13T14:58:12.603Z,58.80
2018-08-13T15:00:43.147Z,58.40
2018-08-13T15:03:13.403Z,58.20
2018-08-13T15:05:43.763Z,57.90
2018-08-13T15:08:12.443Z,57.60
2018-08-13T15:10:41.968Z,57.60
2018-08-13T15:13:12.930Z,58.00
2018-08-13T15:15:42.207Z,58.20
2018-08-13T15:18:11.298Z,58.30
2018-08-13T15:20:41.634Z,58.00
2018-08-13T15:23:10.421Z,57.70
2018-08-13T15:25:41.012Z,57.90
2018-08-13T15:28:11.157Z,57.70
2018-08-13T15:30:40.058Z,57.40
2018-08-13T15:33:11.520Z,57.50
2018-08-13T15:35:40.425Z,57.60
2018-08-13T15:38:09.141Z,57.60
2018-08-13T15:40:38.130Z,57.80
2018-08-13T15:43:07.869Z,57.90
2018-08-13T15:45:36.747Z,57.60
2018-08-13T15:48:05.475Z,58.20
2018-08-13T15:50:34.065Z,58.30
2018-08-13T15:53:02.981Z,56.20
2018-08-13T15:55:31.580Z,58.00
2018-08-13T15:58:01.018Z,59.20
2018-08-13T16:00:29.756Z,60.10
2018-08-13T16:02:58.621Z,61.00
2018-08-13T16:05:28.209Z,61.60
2018-08-13T16:07:57.110Z,61.60
2018-08-13T16:10:26.286Z,61.40
2018-08-13T16:12:56.170Z,62.10
2018-08-13T16:15:26.127Z,62.10
2018-08-13T16:17:55.880Z,62.40
2018-08-13T16:20:25.883Z,63.40
2018-08-13T16:22:54.609Z,63.20
2018-08-13T16:25:23.270Z,63.60
2018-08-13T16:27:52.377Z,65.60
2018-08-13T16:30:26.381Z,66.00
2018-08-13T16:32:55.824Z,63.80
2018-08-13T16:35:25.042Z,62.50
2018-08-13T16:37:53.926Z,61.80
2018-08-13T16:40:23.136Z,62.30
2018-08-13T16:42:52.496Z,62.90
2018-08-13T16:45:24.164Z,63.80
2018-08-13T16:47:52.955Z,63.60
2018-08-13T16:50:31.886Z,63.60
2018-08-13T16:53:01.841Z,63.40
2018-08-13T16:55:31.912Z,64.00
2018-08-13T16:58:01.761Z,63.50
2018-08-13T17:00:32.041Z,62.20
2018-08-13T17:03:02.090Z,62.20
2018-08-13T17:05:33.308Z,62.50
2018-08-13T17:08:02.925Z,61.80
2018-08-13T17:10:32.822Z,62.50
2018-08-13T17:13:02.291Z,62.50
2018-08-13T17:15:32.133Z,63.10
2018-08-13T17:18:01.911Z,63.20
2018-08-13T17:20:34.686Z,63.70
2018-08-13T17:23:06.345Z,63.70
2018-08-13T17:25:35.959Z,63.80
2018-08-13T17:28:07.113Z,63.50
2018-08-13T17:30:36.299Z,63.40
2018-08-13T17:33:06.001Z,62.90
2018-08-13T17:35:36.854Z,63.10
2018-08-13T17:38:09.232Z,62.90
2018-08-13T17:40:39.293Z,63.20
2018-08-13T17:43:09.601Z,63.30
2018-08-13T17:45:40.173Z,63.10
2018-08-13T17:48:10.633Z,63.20
2018-08-13T17:50:41.328Z,63.50
2018-08-13T17:53:10.763Z,63.70
2018-08-13T17:55:39.610Z,63.50
2018-08-13T17:58:08.948Z,63.60
2018-08-13T18:00:38.817Z,63.50
2018-08-13T18:03:08.505Z,63.20
2018-08-13T18:05:38.692Z,63.20
2018-08-13T18:08:08.713Z,64.00
2018-08-13T18:10:38.209Z,64.30
2018-08-13T18:13:08.650Z,64.40
2018-08-13T18:15:37.315Z,64.50
2018-08-13T18:18:06.752Z,64.00
2018-08-13T18:20:35.486Z,63.70
2018-08-13T18:23:04.626Z,63.70
2018-08-13T18:25:33.184Z,63.70
2018-08-13T18:28:02.122Z,63.70
2018-08-13T18:30:31.170Z,63.80
2018-08-13T18:32:59.736Z,63.70
2018-08-13T18:35:28.309Z,63.20
2018-08-13T18:37:57.432Z,63.20
2018-08-13T18:40:29.544Z,63.20
2018-08-13T18:42:58.440Z,63.40
2018-08-13T18:45:27.185Z,63.80
2018-08-13T18:47:55.956Z,64.30
2018-08-13T18:50:24.611Z,63.80
2018-08-13T18:52:53.659Z,63.90
2018-08-13T18:55:23.585Z,63.80
2018-08-13T18:57:52.598Z,64.00
2018-08-13T19:00:24.350Z,63.90
2018-08-13T19:02:53.955Z,63.90
2018-08-13T19:05:23.065Z,63.60
2018-08-13T19:07:52.103Z,63.60
2018-08-13T19:10:21.415Z,63.60
2018-08-13T19:12:50.097Z,63.20
2018-08-13T19:15:21.129Z,63.40
2018-08-13T19:17:50.213Z,63.30
2018-08-13T19:20:18.916Z,63.50
2018-08-13T19:22:47.852Z,63.50
2018-08-13T19:25:18.900Z,64.00
2018-08-13T19:27:47.657Z,63.90
2018-08-13T19:30:18.209Z,64.30
2018-08-13T19:32:47.793Z,64.30
2018-08-13T19:35:16.524Z,64.40
2018-08-13T19:37:45.628Z,64.50
2018-08-13T19:40:18.480Z,64.70
2018-08-13T19:42:48.002Z,64.70
2018-08-13T19:45:17.442Z,64.70
2018-08-13T19:47:46.540Z,64.60
2018-08-13T19:50:15.394Z,65.10
2018-08-13T19:52:45.208Z,65.50
2018-08-13T19:55:14.789Z,65.30
2018-08-13T19:57:43.440Z,65.10
2018-08-13T20:00:16.261Z,64.60
2018-08-13T20:02:45.960Z,64.60
2018-08-13T20:05:15.074Z,64.40
2018-08-13T20:07:43.636Z,64.50
2018-08-13T20:10:13.507Z,65.30
2018-08-13T20:12:43.033Z,64.10
2018-08-13T20:15:11.725Z,63.90
2018-08-13T20:17:41.301Z,63.70
2018-08-13T20:20:14.119Z,63.60
2018-08-13T20:22:43.825Z,63.60
2018-08-13T20:25:13.814Z,63.40
2018-08-13T20:27:43.541Z,63.40
2018-08-13T20:30:15.568Z,63.40
2018-08-13T20:32:46.197Z,63.60
2018-08-13T20:35:14.759Z,63.70
2018-08-13T20:37:43.485Z,63.80
2018-08-13T20:40:14.092Z,63.80
2018-08-13T20:42:43.313Z,63.70
2018-08-13T20:45:14.395Z,63.90
2018-08-13T20:47:43.601Z,63.80
2018-08-13T20:50:14.392Z,63.80
2018-08-13T20:52:43.487Z,63.70
2018-08-13T20:55:15.193Z,63.90
2018-08-13T20:57:44.627Z,64.00
2018-08-13T21:00:14.448Z,63.90
2018-08-13T21:02:44.364Z,64.00
2018-08-13T21:05:13.442Z,64.00
2018-08-13T21:07:42.436Z,63.80
2018-08-13T21:10:13.320Z,63.50
2018-08-13T21:12:41.876Z,63.50
2018-08-13T21:15:12.658Z,63.50
2018-08-13T21:17:42.095Z,63.20
2018-08-13T21:20:14.844Z,63.20
2018-08-13T21:22:43.959Z,63.30
2018-08-13T21:25:13.980Z,63.40
2018-08-13T21:27:43.236Z,63.20
2018-08-13T21:30:13.606Z,63.50
2018-08-13T21:32:43.598Z,63.50
2018-08-13T21:35:19.083Z,63.60
2018-08-13T21:37:48.068Z,63.70
2018-08-13T21:40:16.694Z,63.80
2018-08-13T21:42:45.597Z,64.00
2018-08-13T21:45:14.612Z,64.10
2018-08-13T21:47:43.281Z,64.40
2018-08-13T21:50:17.570Z,64.20
2018-08-13T21:52:46.824Z,64.30
2018-08-13T21:55:15.419Z,64.60
2018-08-13T21:57:44.055Z,65.50
2018-08-13T22:00:21.125Z,64.60
2018-08-13T22:02:49.723Z,64.60
2018-08-13T22:05:18.608Z,64.90
2018-08-13T22:07:47.425Z,65.10
2018-08-13T22:10:16.194Z,65.10
2018-08-13T22:12:44.892Z,65.10
2018-08-13T22:15:25.907Z,65.00
2018-08-13T22:17:56.401Z,65.00
2018-08-13T22:20:25.740Z,65.00
2018-08-13T22:22:54.608Z,65.00
2018-08-13T22:25:30.499Z,65.00
2018-08-13T22:27:59.960Z,65.00
2018-08-13T22:30:29.357Z,65.00
2018-08-13T22:32:58.006Z,64.90
2018-08-13T22:35:26.721Z,64.90
2018-08-13T22:37:55.389Z,64.90
2018-08-13T22:40:24.199Z,65.00
2018-08-13T22:42:52.874Z,65.00
2018-08-13T22:45:22.811Z,65.20
2018-08-13T22:47:51.513Z,65.30
2018-08-13T22:50:25.788Z,65.10
2018-08-13T22:52:54.593Z,65.30
2018-08-13T22:55:23.228Z,65.20
2018-08-13T22:57:51.889Z,65.30
2018-08-13T23:00:21.807Z,65.70
2018-08-13T23:02:51.565Z,65.80
2018-08-13T23:05:23.729Z,66.00
2018-08-13T23:07:52.477Z,66.00
2018-08-13T23:10:22.503Z,66.20
2018-08-13T23:12:53.778Z,66.30
2018-08-13T23:15:22.537Z,66.20
2018-08-13T23:17:51.576Z,66.20
2018-08-13T23:20:25.259Z,66.20
2018-08-13T23:22:57.131Z,66.30
2018-08-13T23:25:25.979Z,67.10
2018-08-13T23:27:55.763Z,66.50
2018-08-13T23:30:24.546Z,66.50
2018-08-13T23:32:54.285Z,66.40
2018-08-13T23:35:24.243Z,66.30
2018-08-13T23:37:53.486Z,66.30
2018-08-13T23:40:22.738Z,66.50
2018-08-13T23:42:51.361Z,66.70
2018-08-13T23:45:22.850Z,66.70
2018-08-13T23:47:51.609Z,66.90
2018-08-13T23:50:21.833Z,66.80
2018-08-13T23:52:51.873Z,66.90
2018-08-13T23:55:38.159Z,67.80
2018-08-13T23:58:09.627Z,67.00
